Time;durP1;ratioP1;P1;durP2;ratioP2;P2;SDS_P1;SDS_P2;PMS_P1;PMS_P2;Temp;Humidity;BMP_temperature;BMP_pressure;BME280_temperature;BME280_humidity;BME280_pressure;Samples;Min_cycle;Max_cycle;Signal;HPM_P1;HPM_P2
2024/01/08 00:00:50;;;;;;;1.38;1.10;;;3.10;78.50;;;;;;5024597;28;20057;-82
2024/01/08 00:03:18;;;;;;;2.75;1.38;;;3.10;77.80;;;;;;5006104;28;20045;-82
2024/01/08 00:05:45;;;;;;;2.72;1.13;;;3.10;75.40;;;;;;5031383;28;20081;-82
2024/01/08 00:08:12;;;;;;;2.00;0.98;;;3.20;77.50;;;;;;4999258;28;20254;-82
2024/01/08 00:10:39;;;;;;;2.00;1.10;;;3.10;76.50;;;;;;5027156;28;20080;-82
2024/01/08 00:13:06;;;;;;;3.30;1.45;;;3.10;89.00;;;;;;5003872;28;20045;-82
2024/01/08 00:15:34;;;;;;;1.67;1.08;;;3.10;91.20;;;;;;4993787;28;20060;-82
2024/01/08 00:18:03;;;;;;;2.42;1.17;;;3.20;91.30;;;;;;5001876;28;20483;-82
2024/01/08 00:20:30;;;;;;;2.20;1.30;;;3.20;89.20;;;;;;5023026;28;20095;-82
2024/01/08 00:22:57;;;;;;;2.45;1.42;;;3.20;91.50;;;;;;5005683;28;20060;-81
2024/01/08 00:25:25;;;;;;;2.15;1.10;;;3.20;92.10;;;;;;5043369;28;20057;-82
2024/01/08 00:27:52;;;;;;;1.88;1.15;;;3.20;91.20;;;;;;5005868;28;20084;-82
2024/01/08 00:30:19;;;;;;;1.42;0.63;;;3.20;92.20;;;;;;5004221;28;20049;-82
2024/01/08 00:32:48;;;;;;;2.40;0.90;;;3.20;86.80;;;;;;5017945;28;20190;-81
2024/01/08 00:35:16;;;;;;;1.42;0.77;;;3.20;85.90;;;;;;5024032;28;20068;-82
2024/01/08 00:37:43;;;;;;;1.90;1.10;;;3.10;90.50;;;;;;5034620;28;20049;-82
2024/01/08 00:40:11;;;;;;;1.80;0.90;;;3.10;76.20;;;;;;5013560;28;20076;-81
2024/01/08 00:42:38;;;;;;;1.48;0.90;;;3.20;69.90;;;;;;5009438;28;20045;-81
2024/01/08 00:45:07;;;;;;;3.40;1.50;;;3.20;85.00;;;;;;5006500;28;20045;-81
2024/01/08 00:47:34;;;;;;;1.45;0.90;;;3.10;72.90;;;;;;5013080;28;20259;-82
2024/01/08 00:50:03;;;;;;;1.45;0.85;;;3.10;71.90;;;;;;5023493;28;20600;-82
2024/01/08 00:52:31;;;;;;;2.47;1.00;;;3.10;90.70;;;;;;5000837;28;20487;-82
2024/01/08 00:55:04;;;;;;;0.95;0.60;;;3.10;91.20;;;;;;5010400;28;20495;-81
2024/01/08 00:57:34;;;;;;;2.60;0.93;;;3.10;71.80;;;;;;5024103;28;20057;-82
2024/01/08 01:00:02;;;;;;;1.25;0.60;;;3.00;72.70;;;;;;5010339;28;20118;-81
2024/01/08 01:02:30;;;;;;;1.63;0.70;;;3.00;73.20;;;;;;5015646;28;20045;-82
2024/01/08 01:04:57;;;;;;;1.27;0.77;;;3.00;75.40;;;;;;5010500;28;20053;-82
2024/01/08 01:07:27;;;;;;;1.20;0.80;;;3.00;73.40;;;;;;5002151;28;20518;-82
2024/01/08 01:09:55;;;;;;;1.52;0.80;;;2.90;74.50;;;;;;5009884;28;20045;-82
2024/01/08 01:12:26;;;;;;;3.00;1.25;;;2.90;73.60;;;;;;5012223;28;20379;-82
2024/01/08 01:14:53;;;;;;;2.38;1.05;;;3.00;73.80;;;;;;5022902;28;20045;-81
2024/01/08 01:17:21;;;;;;;1.88;0.80;;;3.00;74.50;;;;;;5022828;28;20076;-81
2024/01/08 01:19:48;;;;;;;1.63;0.82;;;3.00;74.00;;;;;;5008908;28;20096;-82
2024/01/08 01:22:15;;;;;;;3.38;1.25;;;3.10;76.40;;;;;;5011656;28;20055;-82
2024/01/08 01:24:43;;;;;;;0.95;0.70;;;3.00;78.20;;;;;;5003642;28;20156;-82
2024/01/08 01:27:10;;;;;;;1.88;1.00;;;3.10;79.40;;;;;;5004417;28;20133;-82
2024/01/08 01:29:38;;;;;;;1.58;0.70;;;3.10;73.60;;;;;;4994227;28;20537;-82
2024/01/08 01:32:05;;;;;;;1.27;0.70;;;3.10;74.80;;;;;;5024588;28;20053;-82
2024/01/08 01:34:32;;;;;;;0.82;0.50;;;3.10;73.80;;;;;;5013586;28;20134;-82
2024/01/08 01:36:59;;;;;;;1.67;0.68;;;3.20;78.20;;;;;;5031084;28;20080;-82
2024/01/08 01:39:26;;;;;;;0.75;0.60;;;3.20;94.40;;;;;;5024354;28;20050;-80
2024/01/08 01:41:53;;;;;;;1.20;0.70;;;3.20;92.10;;;;;;5041338;28;20153;-82
2024/01/08 01:44:20;;;;;;;1.08;0.63;;;3.20;64.50;;;;;;5006269;28;20123;-83
2024/01/08 01:46:51;;;;;;;2.58;0.73;;;3.20;66.70;;;;;;5041657;28;20071;-82
2024/01/08 01:49:20;;;;;;;0.75;0.47;;;3.20;69.50;;;;;;5004991;28;20052;-82
2024/01/08 01:51:48;;;;;;;0.68;0.55;;;3.30;65.00;;;;;;5023043;28;20128;-81
2024/01/08 01:54:16;;;;;;;2.90;0.40;;;3.30;75.20;;;;;;4997209;28;20144;-82
2024/01/08 01:56:53;;;;;;;1.17;0.90;;;3.30;89.70;;;;;;5023177;28;20053;-82
2024/01/08 01:59:21;;;;;;;0.70;0.38;;;3.30;88.20;;;;;;5041668;28;20060;-82
2024/01/08 02:01:48;;;;;;;0.88;0.43;;;3.30;80.20;;;;;;5018500;28;20059;-81
2024/01/08 02:04:17;;;;;;;0.80;0.63;;;3.30;82.30;;;;;;5029426;28;20517;-82
2024/01/08 02:06:44;;;;;;;1.98;0.50;;;3.30;76.50;;;;;;5010449;28;20068;-81
2024/01/08 02:09:16;;;;;;;1.40;0.57;;;3.30;64.70;;;;;;5006218;28;20053;-81
2024/01/08 02:11:44;;;;;;;0.50;0.40;;;3.30;67.20;;;;;;5025018;28;20064;-82
2024/01/08 02:14:15;;;;;;;0.60;0.40;;;3.30;64.80;;;;;;5000316;28;20136;-82
2024/01/08 02:16:42;;;;;;;1.45;0.50;;;3.30;69.60;;;;;;5018347;28;20050;-82
2024/01/08 02:19:11;;;;;;;1.05;0.57;;;3.30;64.80;;;;;;5010428;28;20909;-82
2024/01/08 02:21:39;;;;;;;0.55;0.38;;;3.40;62.10;;;;;;5010781;28;20107;-82
2024/01/08 02:24:06;;;;;;;0.80;0.50;;;3.40;69.50;;;;;;5008525;28;20073;-81
2024/01/08 02:26:36;;;;;;;1.02;0.57;;;3.40;70.60;;;;;;5012411;28;20048;-82
2024/01/08 02:29:05;;;;;;;1.08;0.60;;;3.40;62.70;;;;;;5012180;28;20068;-82
2024/01/08 02:31:32;;;;;;;0.77;0.50;;;3.40;73.20;;;;;;5004823;28;20049;-82
2024/01/08 02:34:01;;;;;;;0.65;0.50;;;3.40;70.10;;;;;;5010945;28;20057;-81
2024/01/08 02:36:29;;;;;;;2.58;1.05;;;3.40;71.00;;;;;;5025203;28;20052;-82
2024/01/08 02:38:56;;;;;;;0.85;0.50;;;3.40;69.70;;;;;;5030693;28;20106;-82
2024/01/08 02:41:25;;;;;;;0.77;0.50;;;3.40;73.50;;;;;;5042558;28;20460;-82
2024/01/08 02:43:53;;;;;;;0.77;0.50;;;3.40;67.90;;;;;;5047138;28;20053;-83
2024/01/08 02:46:20;;;;;;;1.20;0.70;;;3.40;66.90;;;;;;5029048;28;20060;-82
2024/01/08 02:48:48;;;;;;;0.88;0.70;;;3.40;77.30;;;;;;5016931;28;20041;-82
2024/01/08 02:51:15;;;;;;;1.13;0.80;;;3.40;69.90;;;;;;5019705;28;20053;-82
2024/01/08 02:53:42;;;;;;;1.45;0.70;;;3.40;82.90;;;;;;5016107;28;20049;-82
2024/01/08 02:56:19;;;;;;;1.92;0.88;;;3.40;66.50;;;;;;5026224;28;20076;-82
2024/01/08 02:58:49;;;;;;;1.08;0.73;;;3.40;89.60;;;;;;5043150;28;20045;-82
2024/01/08 03:01:16;;;;;;;1.38;0.63;;;3.40;81.50;;;;;;5024077;28;20120;-82
2024/01/08 03:03:44;;;;;;;0.75;0.50;;;3.30;85.20;;;;;;5021707;28;20424;-83
2024/01/08 03:06:11;;;;;;;1.90;0.50;;;3.30;80.20;;;;;;5016013;28;20060;-83
2024/01/08 03:08:38;;;;;;;1.25;0.82;;;3.30;82.90;;;;;;5027776;28;20127;-83
2024/01/08 03:11:07;;;;;;;1.40;0.60;;;3.30;82.20;;;;;;5021206;28;20526;-82
2024/01/08 03:13:34;;;;;;;1.48;0.60;;;3.20;79.70;;;;;;5037250;28;20074;-84
2024/01/08 03:16:01;;;;;;;1.48;0.60;;;3.20;79.80;;;;;;5017963;28;20636;-82
2024/01/08 03:18:29;;;;;;;1.60;0.85;;;3.20;83.50;;;;;;5024216;28;20045;-83
2024/01/08 03:20:57;;;;;;;1.02;0.60;;;3.20;77.80;;;;;;5022824;28;20055;-83
2024/01/08 03:23:24;;;;;;;1.02;0.50;;;3.20;78.80;;;;;;5042056;28;20056;-83
2024/01/08 03:25:51;;;;;;;1.30;0.68;;;3.30;79.90;;;;;;5022502;28;20153;-84
2024/01/08 03:28:18;;;;;;;1.30;0.90;;;3.20;75.90;;;;;;5008327;28;20424;-82
2024/01/08 03:30:45;;;;;;;1.38;0.73;;;3.20;92.70;;;;;;5024739;28;20053;-82
2024/01/08 03:33:14;;;;;;;0.88;0.57;;;3.20;78.60;;;;;;5022586;28;20064;-83
2024/01/08 03:35:43;;;;;;;1.58;0.88;;;3.30;72.40;;;;;;5006439;28;20410;-83
2024/01/08 03:38:12;;;;;;;2.50;0.80;;;3.20;75.90;;;;;;5010722;28;20049;-83
2024/01/08 03:40:39;;;;;;;2.78;0.90;;;3.20;95.70;;;;;;5020228;28;20504;-82
2024/01/08 03:43:07;;;;;;;0.73;0.47;;;3.20;95.50;;;;;;5015833;28;20052;-82
2024/01/08 03:45:34;;;;;;;0.50;0.50;;;3.20;94.80;;;;;;5022693;28;20402;-82
2024/01/08 03:48:01;;;;;;;1.40;0.60;;;3.30;96.80;;;;;;5024588;28;20401;-82
2024/01/08 03:50:28;;;;;;;1.08;0.70;;;3.30;99.90;;;;;;5028944;28;20417;-82
2024/01/08 03:52:55;;;;;;;1.83;0.90;;;3.30;99.90;;;;;;5014144;28;20049;-82
2024/01/08 03:55:22;;;;;;;1.35;0.80;;;3.30;92.40;;;;;;5022753;28;20052;-83
2024/01/08 03:57:49;;;;;;;3.33;0.93;;;3.30;93.10;;;;;;5021129;28;20818;-83
2024/01/08 04:00:17;;;;;;;2.38;0.90;;;3.30;90.00;;;;;;5036014;28;20038;-83
2024/01/08 04:02:44;;;;;;;2.60;1.23;;;3.30;93.90;;;;;;5034833;28;20057;-82
2024/01/08 04:05:12;;;;;;;1.63;1.00;;;3.30;99.20;;;;;;5006680;28;20345;-83
2024/01/08 04:07:41;;;;;;;2.90;0.75;;;3.30;92.80;;;;;;5033288;28;20517;-82
2024/01/08 04:10:08;;;;;;;1.08;0.70;;;3.30;93.90;;;;;;5030814;28;20053;-82
2024/01/08 04:12:36;;;;;;;1.38;0.90;;;3.30;97.00;;;;;;5020494;28;20607;-83
2024/01/08 04:15:04;;;;;;;2.35;0.70;;;3.30;93.60;;;;;;5005378;28;20057;-83
2024/01/08 04:17:31;;;;;;;0.60;0.55;;;3.40;95.30;;;;;;5010473;28;20044;-83
2024/01/08 04:19:59;;;;;;;1.92;0.80;;;3.40;85.90;;;;;;5021743;28;20049;-83
2024/01/08 04:22:27;;;;;;;1.90;0.80;;;3.40;83.30;;;;;;5035451;28;20103;-82
2024/01/08 04:24:53;;;;;;;1.77;0.60;;;3.40;81.80;;;;;;5038023;28;20605;-83
2024/01/08 04:27:21;;;;;;;1.25;0.80;;;3.40;84.20;;;;;;5025882;28;20068;-83
2024/01/08 04:29:49;;;;;;;1.48;0.70;;;3.40;79.60;;;;;;5019761;28;20436;-84
2024/01/08 04:32:16;;;;;;;1.40;0.73;;;3.40;78.00;;;;;;5019712;28;20490;-83
2024/01/08 04:34:44;;;;;;;2.80;0.95;;;3.40;82.90;;;;;;5010227;28;20047;-83
2024/01/08 04:37:13;;;;;;;2.05;1.38;;;3.40;75.70;;;;;;5033567;28;20049;-81
2024/01/08 04:39:41;;;;;;;2.88;1.02;;;3.40;80.70;;;;;;5024221;28;20140;-82
2024/01/08 04:42:09;;;;;;;1.98;1.00;;;3.40;84.80;;;;;;5018197;28;20061;-83
2024/01/08 04:44:36;;;;;;;4.50;0.90;;;3.40;73.60;;;;;;5018436;28;20045;-83
2024/01/08 04:47:06;;;;;;;2.22;0.80;;;3.40;82.80;;;;;;5009663;28;20053;-82
2024/01/08 04:49:34;;;;;;;1.42;0.80;;;3.40;94.10;;;;;;5022561;28;20535;-82
2024/01/08 04:52:00;;;;;;;2.33;0.82;;;3.40;82.50;;;;;;5026128;28;20135;-82
2024/01/08 04:54:27;;;;;;;2.90;1.10;;;3.40;79.40;;;;;;5021350;28;20135;-83
2024/01/08 04:56:58;;;;;;;1.98;0.75;;;3.50;81.60;;;;;;5005908;28;20049;-82
2024/01/08 04:59:27;;;;;;;1.42;0.80;;;3.50;89.70;;;;;;5030563;28;20057;-83
2024/01/08 05:01:55;;;;;;;1.27;0.88;;;3.50;89.40;;;;;;5017905;28;20053;-83
2024/01/08 05:04:22;;;;;;;2.33;0.80;;;3.50;91.00;;;;;;5005602;28;20400;-83
2024/01/08 05:06:48;;;;;;;1.52;0.70;;;3.50;90.90;;;;;;5036277;28;20098;-82
2024/01/08 05:09:17;;;;;;;2.60;0.90;;;3.50;97.90;;;;;;5018303;28;20048;-83
2024/01/08 05:11:43;;;;;;;1.88;0.80;;;3.50;83.30;;;;;;5038512;28;20111;-82
2024/01/08 05:14:13;;;;;;;2.45;0.80;;;3.50;79.40;;;;;;5006479;28;20048;-82
2024/01/08 05:16:40;;;;;;;1.48;1.00;;;3.40;81.40;;;;;;5040301;28;20055;-82
2024/01/08 05:19:08;;;;;;;1.55;1.05;;;3.50;87.90;;;;;;5005144;28;20048;-81
2024/01/08 05:21:36;;;;;;;1.50;0.70;;;3.50;92.70;;;;;;5001070;28;20060;-82
2024/01/08 05:24:03;;;;;;;1.20;0.77;;;3.40;89.30;;;;;;5006803;28;20053;-81
2024/01/08 05:26:30;;;;;;;1.95;0.93;;;3.40;74.90;;;;;;5038380;28;20055;-81
2024/01/08 05:28:57;;;;;;;1.05;0.75;;;3.40;81.40;;;;;;5027384;28;20045;-82
2024/01/08 05:31:27;;;;;;;1.73;0.85;;;3.40;73.70;;;;;;5024093;28;20052;-77
2024/01/08 05:33:54;;;;;;;0.85;0.60;;;3.40;78.10;;;;;;5035560;28;20053;-81
2024/01/08 05:36:21;;;;;;;1.05;0.70;;;3.40;67.60;;;;;;5020888;28;20041;-82
2024/01/08 05:38:48;;;;;;;1.67;0.82;;;3.30;75.00;;;;;;5021964;28;20048;-81
2024/01/08 05:41:18;;;;;;;0.63;0.52;;;3.30;75.80;;;;;;5008267;28;20065;-81
2024/01/08 05:43:47;;;;;;;0.98;0.60;;;3.30;74.60;;;;;;5037200;28;20072;-82
2024/01/08 05:46:15;;;;;;;1.80;0.70;;;3.30;74.60;;;;;;5022585;28;20106;-82
2024/01/08 05:48:42;;;;;;;4.05;0.80;;;3.30;67.90;;;;;;5014543;28;20103;-81
2024/01/08 05:51:09;;;;;;;0.73;0.65;;;3.30;80.00;;;;;;5014527;28;20049;-81
2024/01/08 05:53:37;;;;;;;1.92;0.65;;;3.30;87.40;;;;;;5007958;28;20052;-81
2024/01/08 05:56:06;;;;;;;3.03;0.88;;;3.30;82.10;;;;;;5043822;28;20073;-82
2024/01/08 05:58:33;;;;;;;1.42;0.90;;;3.20;82.60;;;;;;5037590;28;20045;-83
2024/01/08 06:01:01;;;;;;;3.53;0.80;;;3.20;71.70;;;;;;5010760;28;20103;-82
2024/01/08 06:03:28;;;;;;;2.22;1.00;;;3.10;69.70;;;;;;5008303;28;20053;-84
2024/01/08 06:05:55;;;;;;;2.08;0.85;;;3.10;76.60;;;;;;5021333;28;20160;-82
2024/01/08 06:08:23;;;;;;;2.67;1.23;;;3.10;90.90;;;;;;5024302;28;20072;-82
2024/01/08 06:10:52;;;;;;;1.35;0.88;;;3.10;92.70;;;;;;5009237;28;20089;-83
2024/01/08 06:13:20;;;;;;;2.15;0.75;;;3.10;81.10;;;;;;5005283;28;20129;-82
2024/01/08 06:15:48;;;;;;;2.65;1.02;;;3.20;85.70;;;;;;5024496;28;20041;-83
2024/01/08 06:18:15;;;;;;;1.00;0.77;;;3.20;81.30;;;;;;5024074;28;20556;-82
2024/01/08 06:20:42;;;;;;;1.75;0.85;;;3.20;65.70;;;;;;5037915;28;20398;-82
2024/01/08 06:23:09;;;;;;;1.38;0.82;;;3.20;82.90;;;;;;5035232;28;20060;-82
2024/01/08 06:25:36;;;;;;;1.20;0.60;;;3.20;86.50;;;;;;5023678;28;20629;-83
2024/01/08 06:28:03;;;;;;;0.88;0.60;;;3.20;90.20;;;;;;5007379;28;20137;-82
2024/01/08 06:30:30;;;;;;;2.15;1.23;;;3.20;92.10;;;;;;5008648;28;20244;-82
2024/01/08 06:32:59;;;;;;;3.03;0.82;;;3.20;99.90;;;;;;5022897;28;20072;-83
2024/01/08 06:35:26;;;;;;;1.80;0.75;;;3.10;94.10;;;;;;5037631;28;20064;-83
2024/01/08 06:37:54;;;;;;;1.98;0.90;;;3.10;78.40;;;;;;5020730;28;20503;-83
2024/01/08 06:40:21;;;;;;;3.45;0.90;;;3.10;80.00;;;;;;5037580;28;20132;-83
2024/01/08 06:42:49;;;;;;;2.03;1.00;;;3.10;96.90;;;;;;5023538;28;20064;-83
2024/01/08 06:45:28;;;;;;;1.65;0.80;;;3.00;90.10;;;;;;5023904;28;20046;-83
2024/01/08 06:47:56;;;;;;;2.25;0.88;;;3.00;89.00;;;;;;5045791;28;20126;-83
2024/01/08 06:50:23;;;;;;;2.35;0.60;;;3.00;91.70;;;;;;5012417;28;20080;-84
2024/01/08 06:52:52;;;;;;;2.42;0.80;;;3.00;82.50;;;;;;5009115;28;20095;-83
2024/01/08 06:55:21;;;;;;;2.30;1.05;;;3.00;99.90;;;;;;5022699;28;20128;-84
2024/01/08 06:57:52;;;;;;;2.70;1.02;;;3.00;99.90;;;;;;5025732;28;20049;-83
2024/01/08 07:00:20;;;;;;;1.67;0.80;;;3.00;98.40;;;;;;5034256;28;20045;-83
2024/01/08 07:02:47;;;;;;;1.33;0.68;;;3.10;99.90;;;;;;5005813;28;20052;-82
2024/01/08 07:05:16;;;;;;;3.00;0.70;;;3.10;99.90;;;;;;5018564;28;20597;-83
2024/01/08 07:07:46;;;;;;;1.38;0.73;;;3.10;99.90;;;;;;5036373;28;20041;-83
2024/01/08 07:10:13;;;;;;;1.30;0.93;;;3.20;99.90;;;;;;5026020;28;20138;-83
2024/01/08 07:12:40;;;;;;;1.90;0.90;;;3.20;99.90;;;;;;5024349;28;20096;-83
2024/01/08 07:15:08;;;;;;;4.05;1.30;;;3.30;99.90;;;;;;5025159;28;20053;-78
2024/01/08 07:17:34;;;;;;;3.20;0.82;;;3.20;99.90;;;;;;5031680;28;20048;-79
2024/01/08 07:20:02;;;;;;;2.33;0.77;;;3.30;99.90;;;;;;5011999;28;20391;-78
2024/01/08 07:22:30;;;;;;;1.35;1.08;;;3.30;98.80;;;;;;5019597;28;20060;-78
2024/01/08 07:24:56;;;;;;;1.83;0.60;;;3.30;99.90;;;;;;5019839;28;20510;-79
2024/01/08 07:27:23;;;;;;;4.72;0.70;;;3.30;99.90;;;;;;5008601;28;20052;-78
2024/01/08 07:29:50;;;;;;;2.95;1.00;;;3.30;99.00;;;;;;5025185;28;20049;-78
2024/01/08 07:32:18;;;;;;;1.92;1.10;;;3.30;99.90;;;;;;5019544;28;20049;-78
2024/01/08 07:34:45;;;;;;;0.82;0.60;;;3.30;99.90;;;;;;5033361;28;20494;-79
2024/01/08 07:37:12;;;;;;;1.38;0.70;;;3.30;99.90;;;;;;5023665;28;20045;-78
2024/01/08 07:39:39;;;;;;;0.93;0.70;;;3.30;99.90;;;;;;5008730;28;20540;-78
2024/01/08 07:42:08;;;;;;;2.28;1.00;;;3.30;99.90;;;;;;5042737;28;20080;-78
2024/01/08 07:44:35;;;;;;;1.27;0.80;;;3.40;99.90;;;;;;5007126;28;20763;-78
2024/01/08 07:47:03;;;;;;;2.13;1.30;;;3.40;99.90;;;;;;5022635;28;20048;-78
2024/01/08 07:49:30;;;;;;;1.83;0.68;;;3.30;99.90;;;;;;5004061;28;20129;-78
2024/01/08 07:51:58;;;;;;;1.13;0.68;;;3.30;99.90;;;;;;5021494;28;20565;-78
2024/01/08 07:54:25;;;;;;;3.38;1.00;;;3.30;99.90;;;;;;5021395;28;20053;-78
2024/01/08 07:56:51;;;;;;;1.00;0.63;;;3.40;99.90;;;;;;5019704;28;20530;-78
2024/01/08 07:59:28;;;;;;;1.15;0.65;;;3.30;99.90;;;;;;5011707;28;20064;-78
2024/01/08 08:01:55;;;;;;;2.72;0.80;;;3.40;92.40;;;;;;5031364;28;20048;-78
2024/01/08 08:04:22;;;;;;;0.55;0.50;;;3.40;98.00;;;;;;5018279;28;20049;-78
2024/01/08 08:06:49;;;;;;;0.60;0.52;;;3.40;95.50;;;;;;5001642;28;20048;-78
2024/01/08 08:09:16;;;;;;;1.20;0.63;;;3.40;98.00;;;;;;5032768;28;20076;-78
2024/01/08 08:11:43;;;;;;;2.05;0.80;;;3.40;92.30;;;;;;5007571;28;20414;-78
2024/01/08 08:14:10;;;;;;;2.97;0.70;;;3.40;94.30;;;;;;5007796;28;20049;-78
2024/01/08 08:16:39;;;;;;;2.05;0.60;;;3.40;91.70;;;;;;5009503;28;20044;-78
2024/01/08 08:19:07;;;;;;;1.85;0.68;;;3.50;89.10;;;;;;5018105;28;20418;-78
2024/01/08 08:21:37;;;;;;;1.65;0.70;;;3.50;88.30;;;;;;5000683;28;20049;-77
2024/01/08 08:24:05;;;;;;;2.60;0.63;;;3.50;88.60;;;;;;5032390;28;20050;-78
2024/01/08 08:26:32;;;;;;;0.93;0.65;;;3.50;90.10;;;;;;5014057;28;20053;-78
2024/01/08 08:29:00;;;;;;;1.02;0.55;;;3.50;91.70;;;;;;5037185;28;20049;-78
2024/01/08 08:31:27;;;;;;;1.52;0.60;;;3.50;90.10;;;;;;5022570;28;20426;-78
2024/01/08 08:33:54;;;;;;;1.38;0.70;;;3.50;91.90;;;;;;5037907;28;20067;-78
2024/01/08 08:36:21;;;;;;;0.70;0.60;;;3.50;96.20;;;;;;5008397;28;20056;-77
2024/01/08 08:38:48;;;;;;;2.08;0.80;;;3.50;89.90;;;;;;5003752;28;20106;-78
2024/01/08 08:41:15;;;;;;;1.98;0.68;;;3.50;99.90;;;;;;5036402;28;20606;-78
2024/01/08 08:43:42;;;;;;;1.65;0.73;;;3.50;98.40;;;;;;5020582;28;20049;-78
2024/01/08 08:46:08;;;;;;;1.25;0.90;;;3.40;99.90;;;;;;5035722;28;20095;-78
2024/01/08 08:48:36;;;;;;;3.42;1.30;;;3.50;99.90;;;;;;5021262;28;20605;-78
2024/01/08 08:51:05;;;;;;;4.22;1.00;;;3.50;99.90;;;;;;5038038;28;20056;-78
2024/01/08 08:53:32;;;;;;;1.25;0.70;;;3.50;99.90;;;;;;5038106;28;20049;-79
2024/01/08 08:55:58;;;;;;;1.38;0.63;;;3.50;99.90;;;;;;5023001;28;20404;-78
2024/01/08 08:58:26;;;;;;;1.10;0.90;;;3.50;98.60;;;;;;5022367;28;20186;-78
2024/01/08 09:00:53;;;;;;;1.63;0.90;;;3.50;99.90;;;;;;5036442;28;20049;-78
2024/01/08 09:03:20;;;;;;;2.85;0.88;;;3.50;92.30;;;;;;5019410;28;20144;-80
2024/01/08 09:05:47;;;;;;;1.65;1.05;;;3.50;91.50;;;;;;5036196;28;20174;-78
2024/01/08 09:08:14;;;;;;;2.22;0.60;;;3.50;81.10;;;;;;5018369;28;20128;-78
2024/01/08 09:10:41;;;;;;;1.98;1.00;;;3.50;99.50;;;;;;5019839;28;20367;-79
2024/01/08 09:13:08;;;;;;;2.33;0.73;;;3.50;99.90;;;;;;5021317;28;20041;-79
2024/01/08 09:15:35;;;;;;;1.73;0.70;;;3.40;99.90;;;;;;5007932;28;20079;-78
2024/01/08 09:18:02;;;;;;;1.15;0.80;;;3.50;99.90;;;;;;5022819;28;20612;-78
2024/01/08 09:20:29;;;;;;;1.88;0.90;;;3.40;93.40;;;;;;5021667;28;20243;-78
2024/01/08 09:22:56;;;;;;;2.45;1.10;;;3.50;96.30;;;;;;5013566;28;20869;-79
2024/01/08 09:25:23;;;;;;;1.45;0.70;;;3.50;99.90;;;;;;5033881;28;20056;-79
2024/01/08 09:27:51;;;;;;;1.45;0.75;;;3.50;99.90;;;;;;4996930;28;20087;-78
2024/01/08 09:30:19;;;;;;;1.58;1.00;;;3.50;99.90;;;;;;5014086;28;20430;-78
2024/01/08 09:32:47;;;;;;;2.80;1.10;;;3.60;99.90;;;;;;4995087;28;20061;-78
2024/01/08 09:35:15;;;;;;;1.73;0.85;;;3.60;93.40;;;;;;5012427;28;20053;-79
2024/01/08 09:37:42;;;;;;;3.25;1.08;;;3.60;99.60;;;;;;5009135;28;20049;-78
2024/01/08 09:40:10;;;;;;;2.13;0.85;;;3.60;99.90;;;;;;4998231;28;20049;-78
2024/01/08 09:42:39;;;;;;;1.80;1.05;;;3.60;99.90;;;;;;5016707;28;20041;-78
2024/01/08 09:45:11;;;;;;;3.95;1.00;;;3.60;99.90;;;;;;5000420;28;20138;-78
2024/01/08 09:47:40;;;;;;;3.63;1.80;;;3.60;99.90;;;;;;5017941;28;20053;-78
2024/01/08 09:50:11;;;;;;;4.43;2.35;;;3.60;98.40;;;;;;4999553;28;20063;-79
2024/01/08 09:52:39;;;;;;;2.88;1.50;;;3.60;99.90;;;;;;4991174;28;20155;-79
2024/01/08 09:55:09;;;;;;;2.42;0.98;;;3.60;99.90;;;;;;4998179;28;20053;-80
2024/01/08 09:57:37;;;;;;;3.85;0.93;;;3.70;99.90;;;;;;5013085;28;20147;-80
2024/01/08 10:00:05;;;;;;;3.58;1.30;;;3.70;99.90;;;;;;5008307;28;20051;-82
2024/01/08 10:02:32;;;;;;;1.95;1.00;;;3.70;99.90;;;;;;5000901;28;20048;-81
2024/01/08 10:04:59;;;;;;;1.38;1.00;;;3.80;99.90;;;;;;5003052;28;20088;-82
2024/01/08 10:07:26;;;;;;;1.48;1.10;;;3.80;99.90;;;;;;4997234;28;20192;-81
2024/01/08 10:09:53;;;;;;;1.92;1.10;;;3.80;99.90;;;;;;4990913;28;20088;-80
2024/01/08 10:12:20;;;;;;;1.90;1.20;;;3.90;99.90;;;;;;5011825;28;20071;-81
2024/01/08 10:14:47;;;;;;;4.22;1.23;;;3.90;99.90;;;;;;5006919;28;20050;-81
2024/01/08 10:17:14;;;;;;;2.92;1.00;;;3.80;99.90;;;;;;5023570;28;20075;-80
2024/01/08 10:19:41;;;;;;;3.10;1.27;;;3.80;99.90;;;;;;5024573;28;20064;-80
2024/01/08 10:22:10;;;;;;;3.38;1.30;;;3.90;99.90;;;;;;5021150;28;20068;-80
2024/01/08 10:24:38;;;;;;;1.75;0.90;;;3.90;99.90;;;;;;5016970;28;20485;-80
2024/01/08 10:27:08;;;;;;;2.90;1.08;;;3.90;99.90;;;;;;5005994;28;20053;-80
2024/01/08 10:29:36;;;;;;;2.28;1.20;;;3.90;99.90;;;;;;5022859;28;20758;-80
2024/01/08 10:32:05;;;;;;;2.80;1.30;;;3.70;99.90;;;;;;5038402;28;20061;-80
2024/01/08 10:34:34;;;;;;;4.05;1.60;;;3.50;99.90;;;;;;5005801;28;20118;-80
2024/01/08 10:37:01;;;;;;;2.40;1.30;;;3.30;99.90;;;;;;5024898;28;20091;-78
2024/01/08 10:39:30;;;;;;;2.97;1.10;;;3.20;99.90;;;;;;5044032;28;20057;-77
2024/01/08 10:42:16;;;;;;;2.35;1.10;;;3.10;99.90;;;;;;5019187;28;20398;-78
2024/01/08 10:44:43;;;;;;;2.40;1.15;;;2.90;99.90;;;;;;5045409;28;20067;-79
2024/01/08 10:47:11;;;;;;;2.00;1.20;;;2.80;99.90;;;;;;5043614;28;20472;-79
2024/01/08 10:49:41;;;;;;;2.20;1.27;;;2.60;99.90;;;;;;5011900;28;20138;-78
2024/01/08 10:52:22;;;;;;;1.92;1.13;;;2.60;99.90;;;;;;5019208;28;20518;-78
2024/01/08 10:55:01;;;;;;;2.72;1.42;;;2.50;1.00;;;;;;5034740;28;20123;-79
2024/01/08 10:57:31;;;;;;;2.13;1.40;;;2.50;1.00;;;;;;5013933;28;20506;-79
2024/01/08 10:59:58;;;;;;;3.53;1.50;;;2.70;1.00;;;;;;5045736;28;20045;-79
2024/01/08 11:02:25;;;;;;;1.98;1.38;;;2.70;1.00;;;;;;5026433;28;20106;-78
2024/01/08 11:05:02;;;;;;;2.55;1.17;;;2.80;1.00;;;;;;5026537;28;20049;-78
2024/01/08 11:07:28;;;;;;;2.67;1.38;;;2.90;1.00;;;;;;5013130;28;20072;-78
2024/01/08 11:10:05;;;;;;;3.38;1.40;;;2.90;99.90;;;;;;5013347;28;20045;-78
2024/01/08 11:12:34;;;;;;;2.13;1.17;;;2.90;99.90;;;;;;5013835;28;20068;-78
2024/01/08 11:15:05;;;;;;;2.10;1.17;;;3.00;99.90;;;;;;5029885;28;20053;-78
2024/01/08 11:17:35;;;;;;;2.90;1.70;;;3.10;99.90;;;;;;5030313;28;20065;-79
2024/01/08 11:20:06;;;;;;;2.80;1.58;;;3.10;99.90;;;;;;5013402;28;20144;-78
2024/01/08 11:22:37;;;;;;;2.25;1.27;;;3.10;99.90;;;;;;5002415;28;20144;-79
2024/01/08 11:25:06;;;;;;;1.52;1.15;;;3.20;99.90;;;;;;5038345;28;20053;-78
2024/01/08 11:27:34;;;;;;;3.15;1.10;;;3.20;99.90;;;;;;5001835;28;20131;-78
2024/01/08 11:30:01;;;;;;;3.47;1.63;;;3.30;99.90;;;;;;5002786;28;20092;-77
2024/01/08 11:33:17;;;;;;;1.83;1.10;;;3.40;99.90;;;;;;5014379;28;20085;-79
2024/01/08 11:35:44;;;;;;;2.10;1.45;;;3.50;99.90;;;;;;5030330;28;20057;-78
2024/01/08 11:38:22;;;;;;;2.28;1.42;;;3.60;83.70;;;;;;5019234;28;20060;-79
2024/01/08 11:40:49;;;;;;;2.53;1.30;;;3.70;60.70;;;;;;5036767;28;20041;-79
2024/01/08 11:43:18;;;;;;;1.95;1.10;;;3.70;34.50;;;;;;5019211;28;20060;-79
2024/01/08 11:45:45;;;;;;;3.40;1.67;;;3.70;42.30;;;;;;5018510;28;20044;-79
2024/01/08 11:48:12;;;;;;;3.70;1.30;;;3.70;48.80;;;;;;5020082;28;20111;-78
2024/01/08 11:50:46;;;;;;;1.80;1.15;;;3.80;47.70;;;;;;5017220;28;20053;-78
2024/01/08 11:53:13;;;;;;;2.90;1.50;;;3.70;57.90;;;;;;5021340;28;20754;-78
2024/01/08 11:55:41;;;;;;;1.45;0.82;;;3.80;56.00;;;;;;5009126;28;20140;-78
2024/01/08 11:58:08;;;;;;;2.65;1.10;;;3.90;60.30;;;;;;4993024;28;20159;-79
2024/01/08 12:00:34;;;;;;;1.60;0.90;;;3.90;71.80;;;;;;5009644;28;20073;-81
2024/01/08 12:03:05;;;;;;;1.08;0.70;;;3.90;78.20;;;;;;5025075;28;20155;-79
2024/01/08 12:05:32;;;;;;;1.67;0.95;;;3.90;72.70;;;;;;5025221;28;20046;-78
2024/01/08 12:07:59;;;;;;;1.08;0.82;;;3.90;79.00;;;;;;5007981;28;20073;-79
2024/01/08 12:10:27;;;;;;;1.25;1.00;;;4.00;82.20;;;;;;5009411;28;20059;-78
2024/01/08 12:12:55;;;;;;;1.67;0.98;;;3.90;65.30;;;;;;5024289;28;20640;-78
2024/01/08 12:15:22;;;;;;;1.40;0.80;;;4.00;52.00;;;;;;5008930;28;20053;-79
2024/01/08 12:17:49;;;;;;;2.85;1.10;;;3.90;58.20;;;;;;4992733;28;20049;-79
2024/01/08 12:20:17;;;;;;;1.40;0.95;;;4.00;78.20;;;;;;5009153;28;20058;-78
2024/01/08 12:22:44;;;;;;;1.77;0.80;;;3.90;58.60;;;;;;4987696;28;20053;-78
2024/01/08 12:25:11;;;;;;;2.80;1.23;;;4.00;68.90;;;;;;4989458;28;20057;-79
2024/01/08 12:27:38;;;;;;;1.02;0.70;;;4.10;84.20;;;;;;4989766;28;20053;-80
2024/01/08 12:30:08;;;;;;;1.90;1.10;;;4.10;70.20;;;;;;5008227;28;20046;-79
2024/01/08 12:32:36;;;;;;;1.73;1.02;;;4.10;63.80;;;;;;5008339;28;20081;-79
2024/01/08 12:35:04;;;;;;;3.70;1.20;;;4.10;91.20;;;;;;4992701;28;20152;-79
2024/01/08 12:37:32;;;;;;;1.92;0.85;;;4.10;90.40;;;;;;4991342;28;20060;-79
2024/01/08 12:40:00;;;;;;;2.85;1.00;;;4.10;84.30;;;;;;4992399;28;20046;-79
2024/01/08 12:42:28;;;;;;;2.05;1.17;;;4.10;74.00;;;;;;5024183;28;20087;-79
2024/01/08 12:44:55;;;;;;;3.10;1.10;;;4.10;90.40;;;;;;5037715;28;20111;-79
2024/01/08 12:47:23;;;;;;;2.58;1.10;;;4.00;72.60;;;;;;5044262;28;20080;-79
2024/01/08 12:49:50;;;;;;;2.25;1.25;;;4.00;73.20;;;;;;5011231;28;20494;-79
2024/01/08 12:52:17;;;;;;;2.28;1.20;;;3.90;64.10;;;;;;5001006;28;20056;-78
2024/01/08 12:54:44;;;;;;;1.23;1.05;;;3.90;84.00;;;;;;5015496;28;20049;-79
2024/01/08 12:57:13;;;;;;;2.53;1.33;;;3.80;87.50;;;;;;5034014;28;20038;-79
2024/01/08 12:59:52;;;;;;;2.47;1.40;;;3.70;93.10;;;;;;5032758;28;20055;-79
2024/01/08 13:02:20;;;;;;;1.80;1.30;;;3.50;66.90;;;;;;5017091;28;20128;-78